Time;durP1;ratioP1;P1;durP2;ratioP2;P2;SDS_P1;SDS_P2;PMS_P1;PMS_P2;Temp;Humidity;BMP_temperature;BMP_pressure;BME280_temperature;BME280_humidity;BME280_pressure;Samples;Min_cycle;Max_cycle;Signal;HPM_P1;HPM_P2
2024/02/04 00:00:54;;;;;;;7.00;1.63;;;;;;;;;;5113902;28;20428;-77
2024/02/04 00:03:21;;;;;;;11.87;1.20;;;;;;;;;;5113754;28;20812;-80
2024/02/04 00:05:47;;;;;;;9.77;1.13;;;;;;;;;;5096093;28;20414;-81
2024/02/04 00:08:16;;;;;;;9.77;1.50;;;;;;;;;;5095829;28;20497;-77
2024/02/04 00:10:42;;;;;;;6.40;1.13;;;;;;;;;;5113953;28;20450;-79
2024/02/04 00:13:08;;;;;;;7.80;0.93;;;;;;;;;;5113470;28;20419;-83
2024/02/04 00:15:34;;;;;;;13.67;1.23;;;;;;;;;;5113620;28;20403;-82
2024/02/04 00:18:00;;;;;;;8.97;1.93;;;;;;;;;;5113786;28;20416;-81
2024/02/04 00:20:27;;;;;;;6.43;0.60;;;;;;;;;;5095258;28;20540;-78
2024/02/04 00:22:53;;;;;;;11.80;1.63;;;;;;;;;;5113047;28;20478;-78
2024/02/04 00:25:19;;;;;;;8.27;1.00;;;;;;;;;;5113493;28;20482;-81
2024/02/04 00:27:45;;;;;;;10.07;1.00;;;;;;;;;;5113496;28;20505;-78
2024/02/04 00:30:11;;;;;;;9.63;1.57;;;;;;;;;;5095229;28;20460;-78
2024/02/04 00:32:37;;;;;;;13.30;2.00;;;;;;;;;;5113498;28;20497;-80
2024/02/04 00:35:03;;;;;;;11.60;2.87;;;;;;;;;;5113902;28;20402;-83
2024/02/04 00:37:29;;;;;;;5.27;0.67;;;;;;;;;;5113446;28;20904;-77
2024/02/04 00:39:55;;;;;;;11.70;1.60;;;;;;;;;;5113722;28;20468;-79
2024/02/04 00:42:20;;;;;;;6.80;0.97;;;;;;;;;;5112384;28;20419;-78
2024/02/04 00:44:46;;;;;;;6.30;1.63;;;;;;;;;;5113389;28;20417;-78
2024/02/04 00:47:13;;;;;;;9.87;2.00;;;;;;;;;;5113262;28;20466;-77
2024/02/04 00:49:39;;;;;;;6.37;0.80;;;;;;;;;;5113538;28;20463;-77
2024/02/04 00:52:11;;;;;;;7.53;1.37;;;;;;;;;;5113277;28;20407;-80
2024/02/04 00:54:37;;;;;;;6.57;1.97;;;;;;;;;;5113771;28;20397;-78
2024/02/04 00:57:03;;;;;;;9.70;2.40;;;;;;;;;;5094816;28;20423;-78
2024/02/04 00:59:29;;;;;;;8.00;1.57;;;;;;;;;;5113301;28;20410;-78
2024/02/04 01:01:55;;;;;;;12.23;2.30;;;;;;;;;;5114041;28;20468;-79
2024/02/04 01:04:23;;;;;;;12.20;2.10;;;;;;;;;;5117368;28;20419;-78
2024/02/04 01:06:48;;;;;;;9.30;1.60;;;;;;;;;;5116795;28;20460;-77
2024/02/04 01:09:14;;;;;;;8.80;1.30;;;;;;;;;;5113137;28;21028;-77
2024/02/04 01:11:40;;;;;;;6.83;1.10;;;;;;;;;;5116704;28;20442;-77
2024/02/04 01:14:06;;;;;;;6.80;1.10;;;;;;;;;;5098822;28;20415;-77
2024/02/04 01:16:32;;;;;;;9.93;1.80;;;;;;;;;;5117012;28;20414;-78
2024/02/04 01:18:58;;;;;;;7.67;0.53;;;;;;;;;;5116885;28;20417;-77
2024/02/04 01:21:25;;;;;;;9.57;1.77;;;;;;;;;;5116068;28;20938;-79
2024/02/04 01:23:51;;;;;;;13.00;2.00;;;;;;;;;;5115493;28;20934;-78
2024/02/04 01:26:17;;;;;;;6.23;0.90;;;;;;;;;;5116758;28;20910;-77
2024/02/04 01:28:43;;;;;;;7.37;1.13;;;;;;;;;;5116563;28;20430;-77
2024/02/04 01:31:09;;;;;;;6.60;1.10;;;;;;;;;;5116567;28;20414;-78
2024/02/04 01:33:38;;;;;;;8.70;2.43;;;;;;;;;;5116723;28;20923;-78
2024/02/04 01:36:04;;;;;;;7.63;1.50;;;;;;;;;;5116332;28;20408;-77
2024/02/04 01:38:30;;;;;;;9.57;1.30;;;;;;;;;;5116423;28;20404;-77
2024/02/04 01:40:57;;;;;;;5.40;0.93;;;;;;;;;;5116421;28;20405;-78
2024/02/04 01:43:23;;;;;;;10.17;1.80;;;;;;;;;;5098324;28;20968;-77
2024/02/04 01:45:52;;;;;;;7.63;1.07;;;;;;;;;;5116652;28;20774;-78
2024/02/04 01:48:18;;;;;;;9.73;1.43;;;;;;;;;;5116526;28;20868;-79
2024/02/04 01:50:44;;;;;;;10.10;1.03;;;;;;;;;;5116517;28;20415;-79
2024/02/04 01:53:10;;;;;;;8.77;1.20;;;;;;;;;;5116018;28;20412;-78
2024/02/04 01:55:36;;;;;;;6.17;0.93;;;;;;;;;;5116621;28;20408;-78
2024/02/04 01:58:03;;;;;;;6.17;0.63;;;;;;;;;;5116392;28;20408;-79
2024/02/04 02:00:29;;;;;;;7.63;1.10;;;;;;;;;;5119880;27;20898;-84
2024/02/04 02:02:56;;;;;;;7.50;0.70;;;;;;;;;;5121584;27;20911;-77
2024/02/04 02:05:22;;;;;;;13.00;1.60;;;;;;;;;;5125796;27;20401;-83
2024/02/04 02:07:51;;;;;;;12.53;2.80;;;;;;;;;;5125085;27;20828;-77
2024/02/04 02:10:17;;;;;;;8.23;1.53;;;;;;;;;;5124924;27;20898;-77
2024/02/04 02:13:12;;;;;;;6.47;1.67;;;;;;;;;;5127165;27;20419;-81
2024/02/04 02:15:49;;;;;;;10.97;0.90;;;;;;;;;;5110320;27;20419;-82
2024/02/04 02:18:34;;;;;;;8.23;0.87;;;;;;;;;;5102728;27;20451;-77
2024/02/04 02:21:12;;;;;;;8.93;1.10;;;;;;;;;;5123351;27;20447;-80
2024/02/04 02:23:43;;;;;;;11.97;1.23;;;;;;;;;;5124063;27;20943;-79
2024/02/04 02:26:10;;;;;;;6.23;1.60;;;;;;;;;;5129452;27;20487;-77
2024/02/04 02:28:36;;;;;;;11.77;2.30;;;;;;;;;;5127927;27;20471;-78
2024/02/04 02:31:02;;;;;;;7.07;1.60;;;;;;;;;;5125411;27;20516;-85
2024/02/04 02:33:28;;;;;;;6.13;1.30;;;;;;;;;;5126615;27;20438;-77
2024/02/04 02:35:56;;;;;;;11.60;1.37;;;;;;;;;;5124155;27;20514;-88
2024/02/04 02:38:28;;;;;;;5.00;0.53;;;;;;;;;;5127418;27;20421;-82
2024/02/04 02:40:58;;;;;;;5.13;0.73;;;;;;;;;;5123797;27;20454;-78
2024/02/04 02:43:24;;;;;;;5.47;1.30;;;;;;;;;;5126463;27;20483;-79
2024/02/04 02:45:50;;;;;;;3.33;0.73;;;;;;;;;;5108276;27;20413;-84
2024/02/04 02:48:16;;;;;;;8.67;0.97;;;;;;;;;;5124056;27;20561;-82
2024/02/04 02:50:42;;;;;;;16.20;1.87;;;;;;;;;;5123638;27;20454;-81
2024/02/04 02:53:08;;;;;;;5.77;0.93;;;;;;;;;;5124157;27;20460;-82
2024/02/04 02:55:34;;;;;;;5.50;0.90;;;;;;;;;;5126133;27;20395;-91
2024/02/04 02:58:00;;;;;;;4.70;0.60;;;;;;;;;;5124574;27;20404;-84
2024/02/04 03:00:26;;;;;;;3.20;0.70;;;;;;;;;;5124760;27;20411;-85
2024/02/04 03:02:51;;;;;;;6.60;1.10;;;;;;;;;;5124210;27;20423;-82
2024/02/04 03:05:18;;;;;;;10.13;1.90;;;;;;;;;;5128692;27;20407;-86
2024/02/04 03:07:44;;;;;;;6.70;0.90;;;;;;;;;;5124537;27;20563;-78
2024/02/04 03:10:10;;;;;;;12.00;1.73;;;;;;;;;;5126328;27;20539;-78
2024/02/04 03:12:36;;;;;;;6.60;1.07;;;;;;;;;;5123788;27;20947;-77
2024/02/04 03:15:02;;;;;;;6.07;1.07;;;;;;;;;;5106287;27;20501;-77
2024/02/04 03:17:28;;;;;;;5.70;0.83;;;;;;;;;;5125502;27;20514;-77
2024/02/04 03:19:54;;;;;;;6.67;1.30;;;;;;;;;;5123350;27;20511;-78
2024/02/04 03:22:21;;;;;;;4.53;1.03;;;;;;;;;;5125840;27;20486;-80
2024/02/04 03:24:49;;;;;;;5.90;1.10;;;;;;;;;;5123315;27;20412;-78
2024/02/04 03:27:17;;;;;;;7.63;1.03;;;;;;;;;;5120514;27;20795;-78
2024/02/04 03:29:43;;;;;;;11.03;1.70;;;;;;;;;;5124081;27;20414;-82
2024/02/04 03:32:08;;;;;;;8.97;1.60;;;;;;;;;;5122548;27;20436;-77
2024/02/04 03:34:35;;;;;;;9.50;0.90;;;;;;;;;;5107801;27;20414;-80
2024/02/04 03:37:01;;;;;;;9.43;2.20;;;;;;;;;;5123822;27;20914;-78
2024/02/04 03:39:27;;;;;;;11.30;1.20;;;;;;;;;;5106468;27;20431;-79
2024/02/04 03:41:53;;;;;;;4.93;1.00;;;;;;;;;;5104712;27;20411;-77
2024/02/04 03:44:19;;;;;;;7.53;1.17;;;;;;;;;;5124198;27;20441;-77
2024/02/04 03:46:48;;;;;;;8.50;0.97;;;;;;;;;;5106654;27;20462;-77
2024/02/04 03:49:14;;;;;;;8.60;1.60;;;;;;;;;;5124757;27;20461;-77
2024/02/04 03:51:40;;;;;;;8.93;1.00;;;;;;;;;;5123282;27;20412;-77
2024/02/04 03:54:06;;;;;;;7.07;0.77;;;;;;;;;;5123437;27;20434;-78
2024/02/04 03:56:32;;;;;;;4.53;1.07;;;;;;;;;;5106478;27;20420;-77
2024/02/04 03:58:58;;;;;;;5.57;1.20;;;;;;;;;;5123024;27;20816;-77
2024/02/04 04:01:24;;;;;;;4.50;0.93;;;;;;;;;;5105116;27;20410;-76
2024/02/04 04:03:49;;;;;;;11.03;0.80;;;;;;;;;;5121999;27;20471;-77
2024/02/04 04:06:15;;;;;;;7.50;0.70;;;;;;;;;;5124250;27;20466;-77
2024/02/04 04:08:41;;;;;;;7.37;1.60;;;;;;;;;;5121807;27;20514;-78
2024/02/04 04:11:09;;;;;;;5.00;1.57;;;;;;;;;;5124307;27;20407;-78
2024/02/04 04:13:34;;;;;;;6.33;0.73;;;;;;;;;;5119573;27;20404;-77
2024/02/04 04:16:01;;;;;;;8.20;1.23;;;;;;;;;;5122594;27;20956;-77
2024/02/04 04:18:27;;;;;;;6.30;1.33;;;;;;;;;;5122779;27;20489;-77
2024/02/04 04:20:53;;;;;;;8.73;1.63;;;;;;;;;;5120584;27;20475;-77
2024/02/04 04:23:19;;;;;;;6.27;0.93;;;;;;;;;;5084173;28;20461;-77
2024/02/04 04:25:44;;;;;;;9.93;2.10;;;;;;;;;;5102517;28;20419;-77
2024/02/04 04:28:10;;;;;;;7.97;1.43;;;;;;;;;;5103862;28;20961;-79
2024/02/04 04:30:36;;;;;;;10.43;1.83;;;;;;;;;;5101168;28;20400;-79
2024/02/04 04:33:02;;;;;;;14.63;2.57;;;;;;;;;;5100092;28;20409;-77
2024/02/04 04:35:28;;;;;;;9.13;1.93;;;;;;;;;;5101633;28;20484;-76
2024/02/04 04:37:54;;;;;;;6.77;1.43;;;;;;;;;;5106161;28;20917;-77
2024/02/04 04:40:21;;;;;;;4.97;1.30;;;;;;;;;;5088484;28;20417;-77
2024/02/04 04:42:47;;;;;;;6.00;1.20;;;;;;;;;;5106304;28;20469;-77
2024/02/04 04:45:14;;;;;;;5.60;1.10;;;;;;;;;;5107874;28;20406;-75
2024/02/04 04:47:40;;;;;;;9.70;1.80;;;;;;;;;;5106504;28;20822;-78
2024/02/04 04:50:06;;;;;;;9.33;2.40;;;;;;;;;;5105946;28;20562;-78
2024/02/04 04:52:32;;;;;;;9.20;2.10;;;;;;;;;;5105403;28;20182;-76
2024/02/04 04:54:58;;;;;;;9.70;1.13;;;;;;;;;;5107237;28;20412;-77
2024/02/04 04:57:24;;;;;;;6.60;1.03;;;;;;;;;;5106875;28;20412;-76
2024/02/04 04:59:50;;;;;;;11.53;2.27;;;;;;;;;;5105513;28;20410;-77
2024/02/04 05:02:16;;;;;;;7.30;1.37;;;;;;;;;;5107274;28;20416;-77
2024/02/04 05:04:45;;;;;;;8.73;1.80;;;;;;;;;;5089331;28;20414;-77
2024/02/04 05:07:11;;;;;;;10.83;2.53;;;;;;;;;;5107045;28;20481;-77
2024/02/04 05:09:37;;;;;;;12.83;1.50;;;;;;;;;;5104686;28;20489;-76
2024/02/04 05:12:04;;;;;;;7.53;1.47;;;;;;;;;;5109672;28;20424;-75
2024/02/04 05:14:30;;;;;;;7.90;1.40;;;;;;;;;;5105491;28;20404;-75
2024/02/04 05:16:56;;;;;;;14.50;3.07;;;;;;;;;;5107613;28;20774;-76
2024/02/04 05:19:21;;;;;;;5.07;1.37;;;;;;;;;;5106048;28;20412;-77
2024/02/04 05:21:47;;;;;;;11.83;1.60;;;;;;;;;;5102239;28;20548;-77
2024/02/04 05:24:13;;;;;;;9.80;1.93;;;;;;;;;;5102215;28;20764;-80
2024/02/04 05:26:39;;;;;;;4.93;1.50;;;;;;;;;;5108176;28;20435;-76
2024/02/04 05:29:05;;;;;;;8.23;1.57;;;;;;;;;;5107920;28;20935;-77
2024/02/04 05:31:31;;;;;;;12.00;3.10;;;;;;;;;;5104957;28;20407;-76
2024/02/04 05:33:57;;;;;;;9.83;2.10;;;;;;;;;;5088584;28;20467;-79
2024/02/04 05:36:23;;;;;;;9.40;1.90;;;;;;;;;;5105695;28;20430;-76
2024/02/04 05:38:49;;;;;;;10.13;2.57;;;;;;;;;;5107905;28;20967;-77
2024/02/04 05:41:15;;;;;;;9.47;1.87;;;;;;;;;;5096302;28;20403;-79
2024/02/04 05:43:40;;;;;;;10.53;2.70;;;;;;;;;;5096230;28;20407;-80
2024/02/04 05:46:06;;;;;;;11.30;2.50;;;;;;;;;;5096285;28;20400;-83
2024/02/04 05:48:32;;;;;;;6.27;2.47;;;;;;;;;;5094557;28;20474;-78
2024/02/04 05:51:00;;;;;;;11.53;1.70;;;;;;;;;;5095589;28;20439;-79
2024/02/04 05:53:26;;;;;;;17.30;2.37;;;;;;;;;;5096475;28;20914;-77
2024/02/04 05:55:51;;;;;;;9.13;2.83;;;;;;;;;;5098160;28;20417;-78
2024/02/04 05:58:17;;;;;;;8.07;1.57;;;;;;;;;;5095972;28;20400;-78
2024/02/04 06:00:46;;;;;;;13.30;3.03;;;;;;;;;;5095851;28;20411;-76
2024/02/04 06:03:14;;;;;;;9.80;1.40;;;;;;;;;;5095768;28;20420;-77
2024/02/04 06:05:40;;;;;;;9.97;1.50;;;;;;;;;;5095388;28;20411;-79
2024/02/04 06:08:06;;;;;;;5.30;1.20;;;;;;;;;;5095593;28;20471;-77
2024/02/04 06:10:32;;;;;;;9.83;1.67;;;;;;;;;;5077423;28;20919;-83
2024/02/04 06:12:58;;;;;;;5.40;2.00;;;;;;;;;;5095393;28;20503;-78
2024/02/04 06:15:24;;;;;;;7.77;2.10;;;;;;;;;;5095421;28;20419;-78
2024/02/04 06:17:50;;;;;;;11.10;1.80;;;;;;;;;;5103440;28;21709;-78
2024/02/04 06:20:16;;;;;;;15.00;2.00;;;;;;;;;;5105576;28;20434;-77
2024/02/04 06:22:42;;;;;;;9.87;2.40;;;;;;;;;;5103264;28;20502;-79
2024/02/04 06:25:08;;;;;;;7.47;1.80;;;;;;;;;;5103448;28;20461;-79
2024/02/04 06:27:34;;;;;;;7.87;3.80;;;;;;;;;;5105946;28;20461;-77
2024/02/04 06:30:00;;;;;;;6.70;1.47;;;;;;;;;;5087229;28;20525;-77
2024/02/04 06:32:26;;;;;;;11.60;2.70;;;;;;;;;;5104509;28;20418;-76
2024/02/04 06:34:55;;;;;;;4.50;0.80;;;;;;;;;;5105830;28;20415;-80
2024/02/04 06:37:21;;;;;;;9.83;1.90;;;;;;;;;;5104241;28;20422;-78
2024/02/04 06:39:47;;;;;;;9.07;1.40;;;;;;;;;;5106851;28;20424;-82
2024/02/04 06:42:13;;;;;;;6.40;1.47;;;;;;;;;;5106271;28;20435;-81
2024/02/04 06:44:38;;;;;;;15.17;2.53;;;;;;;;;;5104047;28;20424;-75
2024/02/04 06:47:04;;;;;;;8.20;1.60;;;;;;;;;;5112290;28;20527;-77
2024/02/04 06:49:33;;;;;;;6.93;1.47;;;;;;;;;;5115197;28;20879;-76
2024/02/04 06:52:02;;;;;;;6.40;0.80;;;;;;;;;;5113865;28;20418;-77
2024/02/04 06:54:28;;;;;;;7.97;2.43;;;;;;;;;;5104526;28;20410;-78
2024/02/04 06:57:03;;;;;;;10.77;2.83;;;;;;;;;;5103600;28;20408;-77
2024/02/04 06:59:29;;;;;;;9.40;2.63;;;;;;;;;;5102577;28;20437;-77
2024/02/04 07:01:55;;;;;;;12.63;1.67;;;;;;;;;;5087914;28;20407;-81
2024/02/04 07:04:21;;;;;;;8.27;1.07;;;;;;;;;;5103028;28;20411;-78
2024/02/04 07:06:48;;;;;;;5.73;1.20;;;;;;;;;;5102829;28;20456;-78
2024/02/04 07:09:14;;;;;;;6.97;1.03;;;;;;;;;;5106029;28;20462;-78
2024/02/04 07:11:40;;;;;;;7.83;1.57;;;;;;;;;;5103002;28;20438;-79
2024/02/04 07:14:06;;;;;;;5.70;1.03;;;;;;;;;;5105770;28;20848;-78
2024/02/04 07:16:32;;;;;;;10.60;1.70;;;;;;;;;;5103684;28;20761;-76
2024/02/04 07:18:58;;;;;;;11.10;1.57;;;;;;;;;;5087166;28;20962;-77
2024/02/04 07:21:24;;;;;;;5.47;1.37;;;;;;;;;;5111613;27;20481;-77
2024/02/04 07:23:50;;;;;;;10.53;1.40;;;;;;;;;;5124472;27;20422;-77
2024/02/04 07:26:15;;;;;;;8.10;1.60;;;;;;;;;;5123335;27;20402;-77
2024/02/04 07:28:41;;;;;;;9.43;0.90;;;;;;;;;;5125218;27;20469;-78
2024/02/04 07:31:07;;;;;;;6.90;1.13;;;;;;;;;;5120315;27;20468;-76
2024/02/04 07:33:33;;;;;;;5.30;0.60;;;;;;;;;;5114118;28;20407;-76
2024/02/04 07:35:59;;;;;;;5.63;0.67;;;;;;;;;;5113653;28;20402;-77
2024/02/04 07:38:25;;;;;;;13.23;1.63;;;;;;;;;;5095849;28;20945;-77
2024/02/04 07:40:51;;;;;;;7.80;1.13;;;;;;;;;;5113988;28;20781;-76
2024/02/04 07:43:17;;;;;;;5.83;0.53;;;;;;;;;;5113891;28;20417;-77
2024/02/04 07:45:43;;;;;;;7.43;1.17;;;;;;;;;;5095729;28;20411;-77
2024/02/04 07:48:10;;;;;;;5.43;0.70;;;;;;;;;;5114166;28;20527;-77
2024/02/04 07:50:36;;;;;;;8.43;1.70;;;;;;;;;;5096014;28;20481;-77
2024/02/04 07:53:02;;;;;;;8.87;1.80;;;;;;;;;;5114783;28;20407;-77
2024/02/04 07:55:28;;;;;;;6.20;1.70;;;;;;;;;;5115119;28;20400;-77
2024/02/04 07:58:00;;;;;;;5.87;1.00;;;;;;;;;;5114536;28;20911;-76
2024/02/04 08:00:26;;;;;;;13.20;1.50;;;;;;;;;;5115773;28;20403;-78
2024/02/04 08:02:52;;;;;;;14.30;1.40;;;;;;;;;;5114266;28;20456;-76
2024/02/04 08:05:18;;;;;;;4.57;1.53;;;;;;;;;;5113455;28;20792;-78
2024/02/04 08:07:44;;;;;;;5.10;1.90;;;;;;;;;;5095655;28;20632;-78
2024/02/04 08:10:15;;;;;;;9.63;0.90;;;;;;;;;;5113624;28;20408;-77
2024/02/04 08:12:41;;;;;;;9.90;1.03;;;;;;;;;;5113079;28;20845;-76
2024/02/04 08:15:07;;;;;;;9.63;1.83;;;;;;;;;;5114887;28;20488;-82
2024/02/04 08:17:33;;;;;;;5.80;0.97;;;;;;;;;;5113779;28;20424;-77
2024/02/04 08:19:59;;;;;;;8.27;1.60;;;;;;;;;;5113317;28;20411;-79
2024/02/04 08:22:25;;;;;;;10.73;0.83;;;;;;;;;;5097204;28;20953;-77
2024/02/04 08:24:51;;;;;;;11.70;2.33;;;;;;;;;;5093548;28;20412;-82
2024/02/04 08:27:18;;;;;;;7.83;1.50;;;;;;;;;;5093584;28;20480;-78
2024/02/04 08:29:44;;;;;;;7.90;0.90;;;;;;;;;;5093164;28;20453;-78
2024/02/04 08:32:10;;;;;;;9.17;1.27;;;;;;;;;;5093123;28;20995;-77
2024/02/04 08:34:36;;;;;;;8.03;1.17;;;;;;;;;;5093257;28;20419;-78
2024/02/04 08:37:03;;;;;;;7.57;2.13;;;;;;;;;;5092775;28;20504;-81
2024/02/04 08:39:35;;;;;;;8.83;2.03;;;;;;;;;;5094334;28;20465;-89
2024/02/04 08:42:01;;;;;;;7.50;1.70;;;;;;;;;;5093270;28;20416;-78
2024/02/04 08:44:27;;;;;;;7.37;1.13;;;;;;;;;;5093163;28;20746;-78
2024/02/04 08:46:53;;;;;;;8.97;1.43;;;;;;;;;;5092845;28;20464;-76
2024/02/04 08:49:19;;;;;;;9.33;1.20;;;;;;;;;;5093142;28;20432;-77
2024/02/04 08:51:45;;;;;;;4.90;1.17;;;;;;;;;;5092821;28;20775;-77
2024/02/04 08:54:11;;;;;;;6.20;1.23;;;;;;;;;;5093192;28;20429;-77
2024/02/04 08:56:37;;;;;;;5.37;1.57;;;;;;;;;;5093243;28;20811;-78
2024/02/04 08:59:05;;;;;;;7.03;1.23;;;;;;;;;;5093257;28;20474;-82
2024/02/04 09:01:31;;;;;;;10.20;1.87;;;;;;;;;;5092799;28;20163;-80
2024/02/04 09:04:00;;;;;;;11.13;1.63;;;;;;;;;;5092766;28;20932;-78
2024/02/04 09:06:26;;;;;;;7.60;1.30;;;;;;;;;;5092384;28;20925;-78
2024/02/04 09:08:52;;;;;;;5.73;1.40;;;;;;;;;;5092917;28;20995;-80
2024/02/04 09:11:20;;;;;;;5.93;0.73;;;;;;;;;;5092819;28;20447;-77
2024/02/04 09:13:49;;;;;;;6.73;1.60;;;;;;;;;;5092773;28;20500;-78
2024/02/04 09:16:18;;;;;;;5.93;1.00;;;;;;;;;;5092662;28;20460;-77
2024/02/04 09:18:45;;;;;;;7.10;1.70;;;;;;;;;;5092728;28;20414;-79
2024/02/04 09:21:11;;;;;;;5.23;1.40;;;;;;;;;;5079962;28;20498;-76
2024/02/04 09:23:37;;;;;;;3.80;0.70;;;;;;;;;;5114912;28;20545;-79
2024/02/04 09:26:03;;;;;;;6.80;1.97;;;;;;;;;;5116937;28;20447;-79
2024/02/04 09:28:30;;;;;;;13.37;2.67;;;;;;;;;;5098749;28;20888;-77
2024/02/04 09:30:56;;;;;;;11.20;2.30;;;;;;;;;;5116883;28;20939;-79
2024/02/04 09:33:22;;;;;;;7.90;2.20;;;;;;;;;;5117229;28;20409;-82
2024/02/04 09:35:49;;;;;;;7.43;1.90;;;;;;;;;;5116762;28;20452;-81
2024/02/04 09:38:15;;;;;;;8.40;1.40;;;;;;;;;;5116989;28;20411;-80
2024/02/04 09:40:41;;;;;;;8.63;2.00;;;;;;;;;;5116819;28;20728;-79
2024/02/04 09:43:07;;;;;;;10.60;3.00;;;;;;;;;;5116626;28;20830;-79
2024/02/04 09:45:33;;;;;;;9.57;3.53;;;;;;;;;;5116467;28;20420;-78
2024/02/04 09:48:00;;;;;;;7.33;1.73;;;;;;;;;;5116503;28;20519;-78
2024/02/04 09:50:26;;;;;;;6.73;1.97;;;;;;;;;;5117065;28;20768;-79
2024/02/04 09:52:55;;;;;;;7.13;1.90;;;;;;;;;;5116902;28;20422;-80
2024/02/04 09:55:22;;;;;;;9.30;2.33;;;;;;;;;;5116591;28;20408;-78
2024/02/04 09:57:48;;;;;;;10.67;2.37;;;;;;;;;;5116186;28;20428;-78
2024/02/04 10:00:14;;;;;;;11.70;3.77;;;;;;;;;;5116858;28;20416;-76
2024/02/04 10:02:42;;;;;;;8.17;2.80;;;;;;;;;;5116904;28;20589;-85
2024/02/04 10:05:10;;;;;;;15.60;2.10;;;;;;;;;;5115952;28;20420;-78
2024/02/04 10:07:36;;;;;;;9.07;2.57;;;;;;;;;;5116008;28;20971;-78
2024/02/04 10:10:02;;;;;;;14.23;3.67;;;;;;;;;;5115904;28;20454;-78
2024/02/04 10:12:28;;;;;;;10.90;1.57;;;;;;;;;;5097542;28;20429;-77
2024/02/04 10:14:54;;;;;;;6.70;1.23;;;;;;;;;;5115925;28;20415;-77
2024/02/04 10:17:40;;;;;;;10.07;2.13;;;;;;;;;;5115912;28;20775;-78
2024/02/04 10:20:06;;;;;;;9.00;1.80;;;;;;;;;;5096957;28;20417;-78
2024/02/04 10:22:32;;;;;;;10.17;1.93;;;;;;;;;;5115582;28;20479;-80
2024/02/04 10:25:14;;;;;;;14.23;3.20;;;;;;;;;;5115558;28;20764;-77
2024/02/04 10:27:41;;;;;;;10.40;2.47;;;;;;;;;;5115636;28;20314;-78
2024/02/04 10:30:07;;;;;;;8.27;0.80;;;;;;;;;;5115687;28;20853;-79
2024/02/04 10:32:34;;;;;;;9.07;1.97;;;;;;;;;;5097320;28;20409;-77
2024/02/04 10:35:01;;;;;;;10.67;2.23;;;;;;;;;;5110682;28;20437;-77
2024/02/04 10:37:27;;;;;;;12.53;2.30;;;;;;;;;;5109185;28;20402;-78
2024/02/04 10:39:53;;;;;;;9.57;1.40;;;;;;;;;;5099563;28;20428;-78
2024/02/04 10:42:24;;;;;;;10.33;2.80;;;;;;;;;;5099488;28;20402;-77
2024/02/04 10:44:52;;;;;;;8.93;1.70;;;;;;;;;;5101358;28;20402;-77
2024/02/04 10:47:20;;;;;;;6.63;2.13;;;;;;;;;;5100989;28;20522;-79
2024/02/04 10:49:50;;;;;;;6.77;1.13;;;;;;;;;;5099385;28;20478;-78
2024/02/04 10:52:17;;;;;;;9.37;2.13;;;;;;;;;;5071216;28;20925;-79
2024/02/04 10:54:44;;;;;;;9.87;2.60;;;;;;;;;;5100213;28;20417;-78
2024/02/04 10:57:16;;;;;;;8.23;2.10;;;;;;;;;;5099775;28;20505;-76
2024/02/04 10:59:43;;;;;;;13.73;1.90;;;;;;;;;;5100491;28;20408;-78
2024/02/04 11:02:10;;;;;;;12.40;3.33;;;;;;;;;;5099740;28;20529;-78
2024/02/04 11:04:36;;;;;;;11.90;1.90;;;;;;;;;;5099537;28;20475;-78
2024/02/04 11:07:03;;;;;;;20.77;3.07;;;;;;;;;;5085413;28;20465;-78
2024/02/04 11:09:30;;;;;;;10.47;1.97;;;;;;;;;;5101610;28;20418;-77
2024/02/04 11:11:58;;;;;;;11.17;1.73;;;;;;;;;;5102247;28;20457;-77
2024/02/04 11:14:25;;;;;;;12.43;2.53;;;;;;;;;;5069614;28;20418;-80
2024/02/04 11:17:06;;;;;;;10.10;2.00;;;;;;;;;;5086147;28;20473;-78
2024/02/04 11:19:47;;;;;;;8.03;1.83;;;;;;;;;;5099388;28;20922;-78
2024/02/04 11:22:31;;;;;;;6.40;1.20;;;;;;;;;;5099649;28;20446;-78
2024/02/04 11:25:09;;;;;;;16.07;2.10;;;;;;;;;;5085561;28;20453;-78
2024/02/04 11:27:35;;;;;;;8.43;2.10;;;;;;;;;;5099384;28;20468;-78
2024/02/04 11:30:01;;;;;;;4.97;1.27;;;;;;;;;;5098489;28;20917;-78
2024/02/04 11:32:28;;;;;;;14.90;2.13;;;;;;;;;;5098363;28;20419;-78
2024/02/04 11:34:55;;;;;;;14.37;3.43;;;;;;;;;;5100281;28;20398;-78
2024/02/04 11:37:20;;;;;;;11.00;2.23;;;;;;;;;;5085722;28;20417;-78
2024/02/04 11:39:53;;;;;;;10.27;2.30;;;;;;;;;;5098875;28;20769;-78
2024/02/04 11:42:20;;;;;;;9.03;1.20;;;;;;;;;;5100021;28;20410;-80
2024/02/04 11:44:46;;;;;;;7.60;0.93;;;;;;;;;;5099064;28;20777;-77
2024/02/04 11:47:23;;;;;;;12.97;2.03;;;;;;;;;;5104908;28;20456;-79
2024/02/04 11:49:58;;;;;;;9.60;1.70;;;;;;;;;;5086029;28;20425;-77
2024/02/04 11:52:27;;;;;;;7.63;1.13;;;;;;;;;;5098307;28;20769;-78
2024/02/04 11:54:54;;;;;;;9.27;2.10;;;;;;;;;;5100837;28;20421;-80
2024/02/04 11:57:20;;;;;;;17.47;2.10;;;;;;;;;;5093181;28;20499;-78
2024/02/04 11:59:47;;;;;;;8.80;2.20;;;;;;;;;;5091222;28;20790;-80
2024/02/04 12:02:14;;;;;;;11.27;1.80;;;;;;;;;;5093437;28;20406;-78
2024/02/04 12:04:40;;;;;;;12.77;1.60;;;;;;;;;;5096216;28;20485;-78
2024/02/04 12:07:09;;;;;;;9.67;1.33;;;;;;;;;;5095036;28;20991;-79
2024/02/04 12:09:35;;;;;;;9.70;1.93;;;;;;;;;;5096953;28;20426;-79
2024/02/04 12:12:05;;;;;;;13.50;3.20;;;;;;;;;;5094474;28;20403;-76
2024/02/04 12:14:31;;;;;;;6.67;1.03;;;;;;;;;;5097576;28;20409;-80
2024/02/04 12:16:57;;;;;;;6.87;1.43;;;;;;;;;;5096173;28;20810;-77
2024/02/04 12:19:24;;;;;;;11.87;3.33;;;;;;;;;;5095892;28;20425;-78
2024/02/04 12:21:50;;;;;;;6.00;2.53;;;;;;;;;;5104547;28;20519;-78
2024/02/04 12:24:16;;;;;;;10.60;1.97;;;;;;;;;;5098923;28;20769;-79
2024/02/04 12:26:45;;;;;;;7.87;2.13;;;;;;;;;;5095290;28;20529;-80
2024/02/04 12:29:11;;;;;;;11.20;1.40;;;;;;;;;;5113330;28;20420;-79
2024/02/04 12:31:36;;;;;;;10.30;2.10;;;;;;;;;;5113302;28;20417;-79
2024/02/04 12:34:02;;;;;;;10.73;1.17;;;;;;;;;;5112797;28;20413;-83
2024/02/04 12:36:29;;;;;;;14.43;1.73;;;;;;;;;;5095194;28;20961;-83
2024/02/04 12:38:56;;;;;;;9.87;1.20;;;;;;;;;;5113297;28;20181;-79
2024/02/04 12:41:22;;;;;;;5.97;1.20;;;;;;;;;;5108366;28;20425;-79
2024/02/04 12:43:52;;;;;;;8.87;1.30;;;;;;;;;;5099435;28;20423;-77
2024/02/04 12:46:19;;;;;;;7.00;1.50;;;;;;;;;;5097984;28;20418;-78
2024/02/04 12:48:45;;;;;;;10.97;1.67;;;;;;;;;;5103754;28;20992;-79
2024/02/04 12:51:11;;;;;;;5.87;1.40;;;;;;;;;;5094943;28;20407;-77
2024/02/04 12:53:37;;;;;;;9.83;1.90;;;;;;;;;;5096272;28;20479;-83
2024/02/04 12:56:03;;;;;;;7.53;0.60;;;;;;;;;;5092328;28;20403;-80
2024/02/04 12:58:29;;;;;;;7.83;1.10;;;;;;;;;;5107993;28;20424;-79
2024/02/04 13:01:02;;;;;;;11.30;1.90;;;;;;;;;;5095407;28;20405;-80
2024/02/04 13:03:28;;;;;;;9.37;1.70;;;;;;;;;;5113265;28;20498;-79
2024/02/04 13:06:00;;;;;;;9.33;1.57;;;;;;;;;;5112077;28;20424;-77
2024/02/04 13:08:29;;;;;;;7.37;1.63;;;;;;;;;;5109898;28;20471;-78
2024/02/04 13:10:58;;;;;;;8.03;0.83;;;;;;;;;;5116683;28;20744;-81
2024/02/04 13:13:27;;;;;;;6.53;1.10;;;;;;;;;;5117016;28;20421;-79
2024/02/04 13:15:53;;;;;;;12.30;1.40;;;;;;;;;;5098772;28;20750;-78
2024/02/04 13:18:19;;;;;;;9.70;1.80;;;;;;;;;;5116103;28;20437;-84
2024/02/04 13:20:45;;;;;;;10.97;1.20;;;;;;;;;;5087412;28;20482;-77
2024/02/04 13:23:11;;;;;;;6.13;1.30;;;;;;;;;;5108579;28;20968;-78
2024/02/04 13:25:37;;;;;;;9.60;0.90;;;;;;;;;;5116350;28;20427;-78
2024/02/04 13:28:04;;;;;;;8.50;0.83;;;;;;;;;;5116779;28;20481;-79
2024/02/04 13:30:33;;;;;;;8.33;1.13;;;;;;;;;;5116835;28;20417;-77
2024/02/04 13:33:01;;;;;;;13.30;1.53;;;;;;;;;;5116750;28;21033;-77
2024/02/04 13:35:27;;;;;;;9.33;2.20;;;;;;;;;;5116269;28;20419;-77
2024/02/04 13:37:54;;;;;;;9.73;1.33;;;;;;;;;;5116707;28;20411;-79
2024/02/04 13:40:21;;;;;;;10.10;1.60;;;;;;;;;;5116655;28;20191;-78
2024/02/04 13:42:46;;;;;;;10.63;1.63;;;;;;;;;;5116667;28;20414;-77
2024/02/04 13:45:19;;;;;;;6.37;1.20;;;;;;;;;;5106261;28;20420;-77
2024/02/04 13:47:45;;;;;;;6.17;1.40;;;;;;;;;;5103291;28;20469;-78
2024/02/04 13:50:11;;;;;;;10.90;1.10;;;;;;;;;;5096382;28;20434;-78
2024/02/04 13:52:37;;;;;;;14.00;2.37;;;;;;;;;;5080996;28;20514;-78
2024/02/04 13:55:07;;;;;;;7.43;1.17;;;;;;;;;;5092743;28;20434;-77
2024/02/04 13:57:33;;;;;;;6.33;1.70;;;;;;;;;;5095621;28;20414;-79
2024/02/04 13:59:59;;;;;;;9.47;1.63;;;;;;;;;;5095207;28;20417;-78
2024/02/04 14:02:26;;;;;;;6.70;1.20;;;;;;;;;;5095427;28;20407;-78
2024/02/04 14:04:52;;;;;;;6.17;1.13;;;;;;;;;;5094722;28;20413;-79
2024/02/04 14:07:19;;;;;;;6.10;1.03;;;;;;;;;;5095081;28;20549;-77
2024/02/04 14:09:45;;;;;;;11.37;1.63;;;;;;;;;;5081508;28;20833;-77
2024/02/04 14:12:12;;;;;;;8.90;1.50;;;;;;;;;;5088460;28;20419;-78
2024/02/04 14:14:39;;;;;;;6.20;0.97;;;;;;;;;;5074775;28;20392;-78
2024/02/04 14:17:04;;;;;;;8.27;2.00;;;;;;;;;;5075213;28;20398;-76
2024/02/04 14:19:30;;;;;;;6.40;0.67;;;;;;;;;;5074415;28;20429;-78
2024/02/04 14:21:56;;;;;;;10.50;1.70;;;;;;;;;;5119320;27;20484;-78
2024/02/04 14:24:22;;;;;;;5.33;2.17;;;;;;;;;;5135835;27;20396;-76
2024/02/04 14:26:48;;;;;;;9.10;1.47;;;;;;;;;;5135800;27;20230;-77
2024/02/04 14:29:15;;;;;;;9.73;1.47;;;;;;;;;;5135836;27;20413;-80
2024/02/04 14:31:41;;;;;;;6.73;1.10;;;;;;;;;;5135684;27;20884;-80
2024/02/04 14:34:07;;;;;;;8.60;1.33;;;;;;;;;;5123673;27;20475;-80
2024/02/04 14:36:33;;;;;;;7.70;0.77;;;;;;;;;;5115204;28;20410;-79